Aviation Digital Data Service (ADDS)

Output produced by METARs form (1303 UTC 17 January 2017)
found at http://aviationweather.gov/adds/metars/
 
KMIV 171139Z 1712/1812 00000KT P6SM VCSH OVC014 
     FM171500 15005KT 5SM BR OVC007 
     FM172100 17005KT 2SM -DZ BR OVC004 
     TEMPO 1804/1808 3/4SM BR 
     FM180900 30003KT 4SM BR OVC004